»·PEaware :: N796TM KSAN-KPSP

N796TM :: KSAN-KPSP

FLIGHT INFORMATION

Flight Status: Arrived
Operator: Privately registered:
United States
More flights under this callsign
Pilot: Thomas J. (32264)
Aircraft: CIRRUS SR-22
(SR22)
More flights by this aircraft type
Origin: KSAN San Diego Intl-Lindbergh
United States
Destination: KPSP Palm Springs Intl
United States
More flights between these airports :: More routes between these airports
Route: JLI V208 TRM
File this flight plan on PilotEdge
Remarks:
Altitude:
(Current/Filed)
11,000ft
Speed:
(Current/Filed)
140kts
Departed: 23-Dec-20 02:16 PM
Arrived: 23-Dec-20 02:58 PM
Distance/Time
Traveled:
74nm/0:41
Distance/Time
To Go:
Arrived

Flight Plot

Page will automatically refresh every two minutes.


Map Options




Map Legend


Flown Route
Filed Route
Departure Airport
Arrival Airport
Navaid (VOR, NDB)
Fix

Horizontal Profiles

Position Reports

Time Latitude Longitude Heading Altitude Ground
Speed
23-Dec-20 14:06 32.733456 -117.178641 17 19ft 0kts
23-Dec-20 14:07 32.733456 -117.178641 17 19ft 0kts
23-Dec-20 14:08 32.733456 -117.178641 17 19ft 0kts
23-Dec-20 14:09 32.733456 -117.178641 17 19ft 0kts
23-Dec-20 14:10 32.733456 -117.178641 17 19ft 0kts
23-Dec-20 14:11 32.733456 -117.178641 17 19ft 0kts
23-Dec-20 14:12 32.733562 -117.178700 207 19ft 2kts
23-Dec-20 14:13 32.731426 -117.176051 126 19ft 15kts
23-Dec-20 14:14 32.730329 -117.176224 287 19ft 19kts
23-Dec-20 14:15 32.740733 -117.204921 321 873ft 114kts
23-Dec-20 14:16 32.770093 -117.234016 321 1904ft 142kts
23-Dec-20 14:17 32.805615 -117.269409 321 1996ft 164kts
23-Dec-20 14:18 32.841074 -117.308487 311 2298ft 158kts
23-Dec-20 14:19 32.875944 -117.341474 351 3140ft 153kts
23-Dec-20 14:20 32.919108 -117.348947 351 3945ft 152kts
23-Dec-20 14:21 32.966719 -117.357205 351 3990ft 156kts
23-Dec-20 14:22 33.006075 -117.346234 77 4196ft 161kts
23-Dec-20 14:23 33.013191 -117.293363 78 5224ft 149kts
23-Dec-20 14:24 33.019942 -117.242526 77 6260ft 146kts
23-Dec-20 14:25 33.026804 -117.190870 77 7127ft 150kts
23-Dec-20 14:26 33.033704 -117.138924 76 7961ft 149kts
23-Dec-20 14:27 33.040543 -117.087149 76 8797ft 147kts
23-Dec-20 14:28 33.047427 -117.034994 76 9437ft 151kts
23-Dec-20 14:29 33.054339 -116.982429 76 10057ft 151kts
23-Dec-20 14:30 33.061211 -116.929950 76 10676ft 150kts
23-Dec-20 14:31 33.068232 -116.876384 76 11013ft 163kts
23-Dec-20 14:32 33.075777 -116.818372 77 11008ft 169kts
23-Dec-20 14:33 33.083459 -116.759160 77 11007ft 170kts
23-Dec-20 14:34 33.091099 -116.700175 77 11007ft 169kts
23-Dec-20 14:35 33.105487 -116.644581 56 11010ft 166kts
23-Dec-20 14:36 33.133595 -116.597038 50 11011ft 165kts
23-Dec-20 14:37 33.170338 -116.560084 34 11021ft 164kts
23-Dec-20 14:38 33.209418 -116.526158 34 11040ft 164kts
23-Dec-20 14:39 33.248377 -116.492324 34 11068ft 163kts
23-Dec-20 14:40 33.287426 -116.458211 34 11104ft 164kts
23-Dec-20 14:41 33.326669 -116.424002 34 11126ft 165kts
23-Dec-20 14:42 33.365865 -116.389780 34 11137ft 166kts
23-Dec-20 14:43 33.405240 -116.355417 34 11137ft 166kts
23-Dec-20 14:44 33.445380 -116.320432 36 11040ft 174kts
23-Dec-20 14:45 33.490315 -116.281033 36 10677ft 177kts
23-Dec-20 14:47 33.533882 -116.242868 36 10679ft 174kts
23-Dec-20 14:48 33.576949 -116.205090 36 10679ft 174kts
23-Dec-20 14:49 33.620689 -116.168440 13 10667ft 172kts
23-Dec-20 14:50 33.641859 -116.217163 282 9543ft 174kts
23-Dec-20 14:51 33.654486 -116.274684 285 8436ft 164kts
23-Dec-20 14:52 33.668750 -116.337033 285 6363ft 180kts
23-Dec-20 14:53 33.701296 -116.389288 322 3647ft 189kts
23-Dec-20 14:54 33.742103 -116.426948 322 2436ft 149kts
23-Dec-20 14:55 33.775580 -116.457873 322 1586ft 103kts
23-Dec-20 14:56 33.799406 -116.480074 321 947ft 90kts
23-Dec-20 14:57 33.821332 -116.500160 323 416ft 77kts
23-Dec-20 14:58 33.827681 -116.507190 188 427ft 0kts
23-Dec-20 14:59 33.825969 -116.507773 268 423ft 0kts

Navigation Log

Ident Type
Flight plan parsing failed, navigation log unavailable